Time;durP1;ratioP1;P1;durP2;ratioP2;P2;SDS_P1;SDS_P2;PMS_P1;PMS_P2;Temp;Humidity;BMP_temperature;BMP_pressure;BME280_temperature;BME280_humidity;BME280_pressure;Samples;Min_cycle;Max_cycle;Signal;HPM_P1;HPM_P2
2021/04/19 00:00:56;;;;;;;35.30;17.38;;;7.00;93.90;;;;;;5004459;28;20112;-67
2021/04/19 00:03:22;;;;;;;28.67;16.15;;;7.00;93.70;;;;;;4983035;28;20278;-68
2021/04/19 00:05:48;;;;;;;30.65;16.70;;;7.10;93.70;;;;;;5002838;28;20046;-68
2021/04/19 00:08:14;;;;;;;28.02;14.68;;;7.10;93.60;;;;;;5003966;28;20025;-68
2021/04/19 00:10:39;;;;;;;24.20;14.73;;;7.10;93.60;;;;;;5001959;28;20030;-68
2021/04/19 00:13:05;;;;;;;25.85;13.70;;;7.10;93.20;;;;;;5001742;28;20118;-68
2021/04/19 00:15:31;;;;;;;24.42;13.50;;;7.10;93.30;;;;;;5002388;28;20061;-68
2021/04/19 00:17:58;;;;;;;20.35;14.02;;;7.20;93.10;;;;;;5002485;28;20034;-68
2021/04/19 00:20:23;;;;;;;23.23;14.00;;;7.20;93.10;;;;;;5003519;28;20030;-68
2021/04/19 00:22:49;;;;;;;24.50;13.98;;;7.20;93.00;;;;;;5003880;28;20545;-69
2021/04/19 00:25:15;;;;;;;23.33;15.10;;;7.20;92.80;;;;;;5002829;28;20053;-68
2021/04/19 00:27:41;;;;;;;25.77;15.05;;;7.20;93.00;;;;;;5005895;28;20033;-68
2021/04/19 00:30:07;;;;;;;21.15;14.27;;;7.20;93.00;;;;;;5007703;28;20585;-68
2021/04/19 00:32:33;;;;;;;23.75;13.95;;;7.20;93.10;;;;;;5004925;28;20030;-68
2021/04/19 00:34:59;;;;;;;34.15;15.35;;;7.30;93.40;;;;;;5006235;28;20470;-68
2021/04/19 00:37:25;;;;;;;22.73;14.68;;;7.20;93.40;;;;;;5007839;28;20065;-69
2021/04/19 00:39:50;;;;;;;26.02;15.88;;;7.30;93.30;;;;;;5007248;28;20386;-68
2021/04/19 00:42:17;;;;;;;29.65;18.42;;;7.30;93.10;;;;;;5006925;28;20081;-69
2021/04/19 00:44:46;;;;;;;33.92;17.73;;;7.30;93.10;;;;;;5007480;28;20540;-67
2021/04/19 00:47:15;;;;;;;35.05;18.50;;;7.30;93.20;;;;;;5005452;28;20065;-68
2021/04/19 00:49:41;;;;;;;30.67;18.17;;;7.30;93.10;;;;;;5005469;28;20030;-69
2021/04/19 00:52:08;;;;;;;27.35;17.70;;;7.30;93.10;;;;;;5007038;28;20028;-68
2021/04/19 00:54:36;;;;;;;35.17;18.23;;;7.20;93.10;;;;;;5011709;28;20450;-68
2021/04/19 00:57:04;;;;;;;35.20;19.35;;;7.20;93.40;;;;;;5003689;28;20541;-67
2021/04/19 00:59:29;;;;;;;33.35;19.42;;;7.20;93.50;;;;;;5005860;28;20038;-68
2021/04/19 01:01:56;;;;;;;31.65;18.02;;;7.20;93.40;;;;;;5005906;28;20088;-69
2021/04/19 01:04:22;;;;;;;32.75;17.85;;;7.30;93.50;;;;;;5007506;28;20030;-69
2021/04/19 01:06:49;;;;;;;32.80;18.55;;;7.20;93.40;;;;;;5008549;28;20036;-69
2021/04/19 01:09:15;;;;;;;33.70;18.13;;;7.20;93.50;;;;;;5004772;28;20037;-69
2021/04/19 01:11:40;;;;;;;32.78;20.02;;;7.20;93.50;;;;;;5009387;28;20022;-69
2021/04/19 01:14:06;;;;;;;29.92;19.80;;;7.20;93.50;;;;;;5007546;28;20026;-69
2021/04/19 01:16:32;;;;;;;33.28;20.27;;;7.20;93.50;;;;;;5007582;28;20026;-69
2021/04/19 01:18:58;;;;;;;32.13;19.27;;;7.10;93.60;;;;;;5007748;28;20164;-69
2021/04/19 01:21:23;;;;;;;37.40;19.73;;;7.20;93.80;;;;;;5005690;28;20028;-69
2021/04/19 01:23:49;;;;;;;34.88;20.20;;;7.10;93.70;;;;;;5006204;28;20030;-69
2021/04/19 01:26:15;;;;;;;34.78;20.35;;;7.10;93.80;;;;;;5008741;28;20022;-69
2021/04/19 01:28:40;;;;;;;36.08;20.60;;;7.10;93.80;;;;;;5007242;28;20080;-68
2021/04/19 01:31:06;;;;;;;35.22;21.23;;;7.10;94.00;;;;;;5007562;28;20038;-69
2021/04/19 01:33:32;;;;;;;37.15;21.25;;;7.10;94.00;;;;;;5007062;28;20576;-69
2021/04/19 01:35:58;;;;;;;37.30;21.30;;;7.10;94.10;;;;;;5006278;28;20084;-69
2021/04/19 01:38:25;;;;;;;35.67;22.17;;;7.10;94.10;;;;;;5006130;28;20045;-68
2021/04/19 01:40:55;;;;;;;38.13;21.67;;;7.20;94.10;;;;;;5007941;28;20030;-69
2021/04/19 01:43:23;;;;;;;32.65;20.33;;;7.20;94.00;;;;;;5007426;28;20032;-68
2021/04/19 01:45:50;;;;;;;36.92;21.27;;;7.20;93.90;;;;;;5006952;28;20033;-68
2021/04/19 01:48:18;;;;;;;32.90;20.40;;;7.30;93.80;;;;;;5009285;28;20022;-69
2021/04/19 01:50:44;;;;;;;38.33;20.83;;;7.20;93.80;;;;;;5007001;28;20058;-69
2021/04/19 01:53:09;;;;;;;31.80;20.20;;;7.10;93.80;;;;;;5005894;28;20053;-69
2021/04/19 01:55:35;;;;;;;33.83;21.25;;;7.10;93.90;;;;;;5007923;28;20482;-68
2021/04/19 01:58:07;;;;;;;38.75;19.52;;;7.10;94.00;;;;;;5006990;28;20022;-67
2021/04/19 02:00:35;;;;;;;30.55;20.30;;;7.10;93.90;;;;;;5004431;28;20049;-69
2021/04/19 02:03:06;;;;;;;39.90;20.13;;;7.10;93.90;;;;;;5008424;28;20029;-69
2021/04/19 02:06:00;;;;;;;29.88;19.55;;;7.10;93.90;;;;;;5007044;28;20040;-69
2021/04/19 02:08:47;;;;;;;27.02;18.58;;;7.10;94.00;;;;;;5004271;28;20033;-69
2021/04/19 02:11:39;;;;;;;35.17;20.40;;;7.10;94.00;;;;;;5008485;28;20046;-69
2021/04/19 02:14:17;;;;;;;32.85;21.27;;;7.10;94.00;;;;;;4999029;28;20529;-69
2021/04/19 02:16:49;;;;;;;30.42;19.48;;;7.00;94.00;;;;;;5009374;28;20647;-69
2021/04/19 02:19:42;;;;;;;42.63;22.13;;;7.00;94.10;;;;;;5005607;28;20049;-69
2021/04/19 02:22:25;;;;;;;33.70;20.67;;;7.00;94.40;;;;;;5005544;28;20077;-70
2021/04/19 02:24:56;;;;;;;37.10;22.20;;;7.00;94.40;;;;;;5006283;28;20141;-69
2021/04/19 02:27:30;;;;;;;;;;;7.10;94.60;;;;;;5006193;28;20026;-68
2021/04/19 02:29:57;;;;;;;40.72;22.85;;;7.10;94.60;;;;;;5004967;28;19913;-69
2021/04/19 02:32:35;;;;;;;42.10;23.77;;;7.00;94.40;;;;;;5005676;28;20406;-68
2021/04/19 02:35:07;;;;;;;33.83;21.90;;;7.00;94.40;;;;;;5006858;28;20080;-69
2021/04/19 02:37:35;;;;;;;39.35;23.65;;;7.10;94.50;;;;;;5000957;28;20054;-69
2021/04/19 02:40:03;;;;;;;38.70;23.10;;;7.10;94.40;;;;;;5007967;28;20088;-69
2021/04/19 02:42:32;;;;;;;37.97;23.25;;;7.00;94.30;;;;;;5004969;28;20465;-69
2021/04/19 02:44:59;;;;;;;36.88;23.67;;;6.90;94.40;;;;;;5006955;28;20077;-69
2021/04/19 02:47:25;;;;;;;40.63;22.58;;;7.10;94.70;;;;;;5006060;28;20025;-69
2021/04/19 02:49:51;;;;;;;41.20;22.95;;;7.10;94.60;;;;;;5007080;28;20030;-69
2021/04/19 02:52:17;;;;;;;35.50;22.65;;;7.10;94.60;;;;;;5005768;28;20037;-68
2021/04/19 02:54:45;;;;;;;33.63;21.33;;;7.10;94.50;;;;;;5005450;28;20033;-70
2021/04/19 02:57:24;;;;;;;34.35;20.08;;;7.10;94.30;;;;;;5000409;28;20041;-69
2021/04/19 02:59:52;;;;;;;34.47;21.20;;;7.00;94.20;;;;;;5006510;28;20179;-69
2021/04/19 03:02:20;;;;;;;37.00;21.95;;;7.00;94.30;;;;;;5007001;28;20022;-68
2021/04/19 03:04:46;;;;;;;33.05;22.05;;;7.00;94.40;;;;;;5006425;28;20034;-69
2021/04/19 03:07:14;;;;;;;35.80;21.30;;;7.00;94.50;;;;;;5006088;28;20381;-70
2021/04/19 03:09:45;;;;;;;35.67;21.55;;;6.90;94.60;;;;;;5004644;28;20029;-69
2021/04/19 03:12:13;;;;;;;36.65;23.55;;;7.00;94.60;;;;;;5006129;28;20938;-69
2021/04/19 03:14:47;;;;;;;39.78;22.85;;;7.00;94.80;;;;;;5005225;28;20041;-69
2021/04/19 03:17:15;;;;;;;37.00;22.70;;;7.00;94.70;;;;;;5006309;28;20026;-68
2021/04/19 03:19:52;;;;;;;37.22;22.05;;;7.00;94.60;;;;;;5003714;28;20037;-69
2021/04/19 03:22:19;;;;;;;35.53;22.98;;;7.00;94.50;;;;;;5006209;28;20095;-70
2021/04/19 03:24:45;;;;;;;35.80;22.55;;;7.00;94.50;;;;;;5003844;28;20125;-69
2021/04/19 03:27:12;;;;;;;34.00;21.67;;;7.00;94.50;;;;;;5006829;28;20494;-69
2021/04/19 03:29:38;;;;;;;30.98;20.70;;;7.00;94.50;;;;;;5003528;28;20049;-69
2021/04/19 03:32:10;;;;;;;44.55;23.70;;;7.10;94.60;;;;;;5007652;28;20037;-69
2021/04/19 03:34:38;;;;;;;40.30;22.95;;;7.10;94.40;;;;;;5004655;28;20030;-69
2021/04/19 03:37:08;;;;;;;36.53;21.67;;;7.10;94.50;;;;;;5006972;28;20033;-69
2021/04/19 03:39:36;;;;;;;43.53;22.03;;;7.00;94.30;;;;;;5006243;28;20116;-69
2021/04/19 03:42:03;;;;;;;33.83;21.40;;;7.00;94.50;;;;;;4999496;28;20378;-68
2021/04/19 03:44:33;;;;;;;36.97;22.70;;;7.00;94.50;;;;;;5003660;28;20030;-69
2021/04/19 03:47:00;;;;;;;41.42;22.88;;;7.00;94.40;;;;;;5007529;28;20099;-69
2021/04/19 03:49:34;;;;;;;41.78;21.92;;;7.00;94.30;;;;;;5001609;28;20037;-68
2021/04/19 03:52:03;;;;;;;41.25;21.13;;;7.00;94.30;;;;;;5005036;28;20022;-69
2021/04/19 03:54:35;;;;;;;37.83;21.33;;;6.90;94.30;;;;;;5005182;28;20040;-69
2021/04/19 03:57:05;;;;;;;33.30;20.38;;;6.90;94.30;;;;;;4998804;28;20406;-70
2021/04/19 03:59:34;;;;;;;36.03;22.88;;;6.90;94.40;;;;;;5004853;28;20054;-69
2021/04/19 04:02:05;;;;;;;33.88;21.27;;;6.80;94.40;;;;;;5009613;28;20034;-69
2021/04/19 04:04:31;;;;;;;37.70;20.33;;;6.90;94.60;;;;;;5007512;28;20029;-69
2021/04/19 04:06:58;;;;;;;35.30;22.00;;;6.90;94.50;;;;;;5009955;28;20034;-69
2021/04/19 04:09:24;;;;;;;38.45;22.10;;;6.90;94.60;;;;;;5009106;28;20030;-69
2021/04/19 04:11:50;;;;;;;34.92;20.88;;;6.90;94.50;;;;;;5009741;28;20084;-69
2021/04/19 04:14:15;;;;;;;40.00;22.17;;;6.90;94.50;;;;;;5007149;28;20044;-69
2021/04/19 04:16:44;;;;;;;37.63;22.15;;;6.90;94.50;;;;;;5010228;28;20639;-69
2021/04/19 04:19:10;;;;;;;34.50;19.77;;;6.90;94.40;;;;;;5007347;28;20399;-69
2021/04/19 04:21:36;;;;;;;32.33;20.42;;;6.80;94.30;;;;;;5007141;28;20110;-69
2021/04/19 04:24:03;;;;;;;42.92;19.80;;;6.80;94.40;;;;;;5007186;28;20357;-70
2021/04/19 04:26:31;;;;;;;31.08;20.65;;;6.90;94.50;;;;;;5010311;28;20479;-69
2021/04/19 04:28:57;;;;;;;31.63;18.77;;;6.90;94.60;;;;;;5008440;28;20025;-69
2021/04/19 04:31:23;;;;;;;41.97;19.60;;;6.80;94.50;;;;;;5010675;28;20026;-70
2021/04/19 04:33:48;;;;;;;38.22;22.85;;;6.80;94.60;;;;;;5001311;28;20030;-70
2021/04/19 04:36:15;;;;;;;34.25;19.92;;;6.90;94.70;;;;;;5008745;28;20034;-70
2021/04/19 04:38:40;;;;;;;43.80;21.35;;;6.90;94.50;;;;;;5007829;28;20029;-70
2021/04/19 04:41:06;;;;;;;32.92;21.33;;;6.80;94.60;;;;;;5008642;28;20034;-70
2021/04/19 04:43:35;;;;;;;38.10;21.65;;;6.90;94.60;;;;;;5009080;28;20030;-70
2021/04/19 04:46:40;;;;;;;35.88;21.52;;;6.90;94.50;;;;;;5002468;28;20091;-70
2021/04/19 04:49:15;;;;;;;46.28;21.88;;;6.90;94.50;;;;;;5007035;28;20029;-70
2021/04/19 04:51:42;;;;;;;32.55;20.27;;;6.90;94.80;;;;;;5010396;28;20026;-70
2021/04/19 04:54:12;;;;;;;34.33;20.58;;;6.90;94.70;;;;;;5007088;28;20022;-70
2021/04/19 04:56:42;;;;;;;40.65;19.83;;;6.90;94.70;;;;;;5007262;28;20250;-70
2021/04/19 04:59:08;;;;;;;35.88;19.70;;;6.80;94.50;;;;;;5006878;28;20033;-70
2021/04/19 05:01:35;;;;;;;34.40;20.58;;;6.80;94.70;;;;;;5008286;28;20048;-70
2021/04/19 05:04:02;;;;;;;37.35;20.83;;;6.80;94.60;;;;;;5002813;28;20132;-70
2021/04/19 05:06:29;;;;;;;30.95;18.95;;;6.90;94.60;;;;;;5005908;28;20506;-70
2021/04/19 05:08:55;;;;;;;30.20;18.30;;;6.90;94.50;;;;;;5007829;28;20038;-70
2021/04/19 05:11:21;;;;;;;25.85;17.42;;;7.00;94.40;;;;;;5009815;28;20625;-69
2021/04/19 05:13:48;;;;;;;28.92;17.63;;;6.90;94.40;;;;;;5005136;28;20086;-70
2021/04/19 05:16:26;;;;;;;27.35;16.52;;;6.90;94.00;;;;;;5009755;28;20018;-70
2021/04/19 05:18:52;;;;;;;26.35;15.70;;;7.00;94.00;;;;;;5001099;28;20072;-69
2021/04/19 05:21:18;;;;;;;24.70;17.33;;;6.90;93.80;;;;;;5005255;28;20026;-69
2021/04/19 05:23:44;;;;;;;26.80;16.90;;;7.00;93.90;;;;;;5006104;28;20441;-70
2021/04/19 05:26:10;;;;;;;21.15;14.57;;;7.00;93.70;;;;;;5007455;28;20545;-70
2021/04/19 05:28:36;;;;;;;22.67;15.85;;;6.90;93.60;;;;;;5004115;28;20091;-69
2021/04/19 05:31:02;;;;;;;22.73;15.93;;;7.00;93.60;;;;;;5004373;28;20029;-70
2021/04/19 05:33:27;;;;;;;22.95;15.60;;;7.00;93.60;;;;;;5005268;28;20026;-71
2021/04/19 05:35:53;;;;;;;24.00;15.30;;;6.90;93.20;;;;;;5006840;28;20009;-69
2021/04/19 05:38:21;;;;;;;23.08;15.30;;;7.00;93.40;;;;;;5005616;28;20487;-67
2021/04/19 05:40:47;;;;;;;27.17;17.10;;;7.00;93.30;;;;;;5007373;28;20073;-70
2021/04/19 05:43:13;;;;;;;23.50;14.68;;;7.00;93.30;;;;;;4996141;28;20140;-69
2021/04/19 05:45:42;;;;;;;28.63;15.98;;;6.90;93.40;;;;;;5007473;28;20397;-69
2021/04/19 05:48:08;;;;;;;24.63;15.88;;;7.00;93.50;;;;;;5008799;28;20037;-69
2021/04/19 05:50:35;;;;;;;24.38;14.98;;;7.10;93.40;;;;;;5005329;28;20030;-68
2021/04/19 05:53:01;;;;;;;22.25;14.35;;;7.10;92.90;;;;;;5008978;28;20478;-70
2021/04/19 05:55:30;;;;;;;21.42;14.98;;;6.90;92.80;;;;;;5004351;28;20120;-70
2021/04/19 05:58:14;;;;;;;30.85;15.60;;;7.10;93.40;;;;;;5006209;28;20465;-70
2021/04/19 06:00:45;;;;;;;23.98;15.77;;;7.00;93.20;;;;;;5004855;28;20131;-70
2021/04/19 06:03:50;;;;;;;30.50;15.10;;;7.10;93.40;;;;;;5008453;28;20038;-71
2021/04/19 06:06:45;;;;;;;23.80;14.32;;;7.00;93.10;;;;;;5004440;28;20042;-70
2021/04/19 06:09:16;;;;;;;24.88;15.32;;;7.10;93.40;;;;;;5004022;28;20486;-70
2021/04/19 06:11:52;;;;;;;19.90;14.77;;;7.20;93.10;;;;;;5006500;28;20025;-69
2021/04/19 06:14:23;;;;;;;20.35;12.98;;;7.20;92.90;;;;;;4991426;28;20561;-70
2021/04/19 06:16:50;;;;;;;22.50;14.50;;;7.20;92.60;;;;;;5004898;28;20105;-69
2021/04/19 06:19:18;;;;;;;18.50;13.23;;;7.10;92.40;;;;;;5001866;28;20026;-70
2021/04/19 06:21:44;;;;;;;22.17;13.68;;;7.30;92.70;;;;;;5012337;28;20036;-69
2021/04/19 06:24:11;;;;;;;20.27;14.00;;;7.20;92.40;;;;;;5005108;28;20261;-69
2021/04/19 06:26:38;;;;;;;20.10;13.50;;;7.30;92.40;;;;;;5007361;28;20386;-70
2021/04/19 06:29:08;;;;;;;20.52;13.75;;;7.30;92.50;;;;;;5003690;28;20029;-69
2021/04/19 06:31:36;;;;;;;22.20;14.07;;;7.40;92.40;;;;;;5006176;28;20036;-69
2021/04/19 06:34:07;;;;;;;21.95;14.32;;;7.40;92.20;;;;;;4996568;28;20030;-70
2021/04/19 06:36:35;;;;;;;22.50;14.20;;;7.50;92.10;;;;;;5006277;28;20026;-69
2021/04/19 06:39:00;;;;;;;26.20;15.57;;;7.60;92.40;;;;;;5000542;28;20421;-70
2021/04/19 06:41:27;;;;;;;24.02;15.27;;;7.60;92.20;;;;;;5006504;28;20026;-70
2021/04/19 06:43:56;;;;;;;23.55;14.80;;;7.70;92.10;;;;;;5004951;28;21026;-68
2021/04/19 06:46:24;;;;;;;22.48;14.93;;;7.70;92.00;;;;;;5004106;28;20170;-69
2021/04/19 06:48:51;;;;;;;23.80;14.55;;;7.80;92.10;;;;;;5000553;28;20109;-70
2021/04/19 06:51:16;;;;;;;24.67;14.77;;;7.80;91.80;;;;;;5007733;28;20080;-69
2021/04/19 06:53:42;;;;;;;23.70;14.40;;;7.90;91.60;;;;;;4999704;28;20550;-69
2021/04/19 06:56:12;;;;;;;23.95;14.57;;;7.80;91.50;;;;;;5005044;28;20026;-68
2021/04/19 06:58:41;;;;;;;21.92;15.00;;;7.70;91.10;;;;;;5004197;28;20029;-68
2021/04/19 07:01:07;;;;;;;20.15;14.35;;;7.90;91.90;;;;;;5006797;28;20644;-70
2021/04/19 07:03:34;;;;;;;22.63;13.85;;;8.00;91.60;;;;;;5005102;28;20088;-70
2021/04/19 07:06:01;;;;;;;20.55;14.05;;;8.00;91.30;;;;;;5004232;28;20442;-69
2021/04/19 07:08:33;;;;;;;18.83;13.30;;;8.20;91.40;;;;;;5005957;28;20030;-69
2021/04/19 07:11:03;;;;;;;20.33;13.82;;;8.20;90.80;;;;;;5006245;28;20026;-70
2021/04/19 07:13:30;;;;;;;18.90;13.32;;;8.10;91.00;;;;;;5004920;28;20041;-70
2021/04/19 07:15:57;;;;;;;20.40;13.05;;;8.30;90.90;;;;;;5003771;28;20041;-69
2021/04/19 07:18:23;;;;;;;16.67;11.38;;;8.50;90.70;;;;;;5005705;28;20034;-70
2021/04/19 07:20:49;;;;;;;13.82;10.13;;;8.60;89.70;;;;;;4996582;28;20034;-68
2021/04/19 07:23:15;;;;;;;13.15;9.68;;;8.50;88.90;;;;;;5005364;28;20025;-69
2021/04/19 07:25:44;;;;;;;13.75;10.02;;;8.50;88.50;;;;;;5006885;28;20041;-69
2021/04/19 07:28:10;;;;;;;16.38;10.60;;;8.30;88.30;;;;;;5007578;28;20386;-69
2021/04/19 07:30:35;;;;;;;14.52;9.70;;;8.40;89.00;;;;;;5004402;28;20030;-69
2021/04/19 07:33:01;;;;;;;14.63;10.30;;;8.40;89.10;;;;;;5004382;28;20029;-68
2021/04/19 07:35:32;;;;;;;15.48;10.43;;;8.70;89.40;;;;;;5003698;28;20027;-69
2021/04/19 07:38:01;;;;;;;14.07;10.68;;;8.80;88.50;;;;;;5006256;28;20402;-69
2021/04/19 07:40:40;;;;;;;15.20;11.55;;;8.80;88.90;;;;;;5004350;28;20037;-68
2021/04/19 07:43:19;;;;;;;16.67;10.75;;;8.90;88.90;;;;;;4989971;28;20025;-70
2021/04/19 07:45:59;;;;;;;15.82;11.77;;;8.70;88.60;;;;;;5004563;28;20034;-69
2021/04/19 07:48:37;;;;;;;14.38;10.05;;;8.90;88.70;;;;;;5006489;28;20026;-69
2021/04/19 07:51:27;;;;;;;16.13;10.43;;;8.80;88.20;;;;;;5004501;28;20064;-69
2021/04/19 07:54:11;;;;;;;14.02;10.10;;;9.10;87.80;;;;;;5004709;28;20080;-69
2021/04/19 07:56:43;;;;;;;17.05;11.20;;;8.90;88.20;;;;;;5000685;28;20517;-70
2021/04/19 07:59:31;;;;;;;16.55;11.52;;;9.00;87.80;;;;;;5001776;28;20068;-69
2021/04/19 08:02:04;;;;;;;17.02;10.93;;;9.30;87.90;;;;;;5006663;28;20110;-68
2021/04/19 08:04:31;;;;;;;14.23;10.70;;;9.30;87.40;;;;;;5002893;28;20034;-68
2021/04/19 08:06:57;;;;;;;15.65;11.55;;;9.50;87.00;;;;;;5005530;28;20030;-70
2021/04/19 08:09:29;;;;;;;16.77;11.85;;;9.30;86.30;;;;;;5002417;28;20128;-67
2021/04/19 08:11:57;;;;;;;17.23;11.93;;;9.50;87.00;;;;;;5003151;28;20550;-67
2021/04/19 08:14:28;;;;;;;15.65;11.15;;;9.50;87.70;;;;;;5002651;28;20053;-67
2021/04/19 08:17:10;;;;;;;17.33;11.57;;;9.60;86.70;;;;;;5002566;28;20502;-67
2021/04/19 08:19:39;;;;;;;17.50;11.90;;;9.90;86.50;;;;;;5005113;28;20038;-67
2021/04/19 08:22:35;;;;;;;15.65;12.05;;;9.80;86.60;;;;;;5005449;28;20606;-66
2021/04/19 08:25:13;;;;;;;16.10;11.02;;;10.00;86.60;;;;;;5004376;28;20030;-67
2021/04/19 08:27:44;;;;;;;14.88;11.18;;;10.10;86.20;;;;;;4981345;28;20598;-66
2021/04/19 08:30:10;;;;;;;;;;;10.40;84.90;;;;;;5002406;28;20045;-68
2021/04/19 08:32:36;;;;;;;15.88;11.13;;;10.50;84.70;;;;;;5002194;28;19913;-69
2021/04/19 08:35:06;;;;;;;15.85;10.73;;;10.40;83.80;;;;;;5003241;28;20029;-66
2021/04/19 08:37:32;;;;;;;19.33;10.75;;;10.60;84.20;;;;;;5001806;28;20030;-67
2021/04/19 08:40:00;;;;;;;13.68;10.73;;;10.30;83.30;;;;;;5002106;28;20049;-67
2021/04/19 08:42:27;;;;;;;15.82;11.02;;;10.40;84.20;;;;;;5002930;28;20029;-68
2021/04/19 08:44:58;;;;;;;15.32;10.98;;;10.40;84.50;;;;;;5004476;28;20509;-70
2021/04/19 08:47:28;;;;;;;17.17;10.98;;;10.20;84.00;;;;;;5001269;28;20571;-66
2021/04/19 08:50:04;;;;;;;16.05;10.30;;;10.60;85.40;;;;;;5006085;28;20030;-69
2021/04/19 08:52:30;;;;;;;15.27;10.43;;;10.60;83.10;;;;;;5000715;28;20141;-68
2021/04/19 08:54:56;;;;;;;16.00;11.15;;;10.60;82.90;;;;;;5007085;28;20541;-66
2021/04/19 08:57:22;;;;;;;13.68;10.18;;;10.80;83.70;;;;;;5006398;28;20418;-68
2021/04/19 08:59:49;;;;;;;17.92;10.68;;;11.20;81.90;;;;;;5001052;28;20038;-68
2021/04/19 09:02:17;;;;;;;15.32;10.13;;;11.00;81.30;;;;;;5008976;28;20088;-70
2021/04/19 09:05:03;;;;;;;14.50;9.48;;;11.40;83.40;;;;;;5008188;28;20044;-71
2021/04/19 09:07:31;;;;;;;16.70;10.40;;;11.40;79.50;;;;;;5008448;28;20025;-67
2021/04/19 09:09:57;;;;;;;13.50;9.95;;;11.60;80.90;;;;;;5005812;28;20478;-66
2021/04/19 09:12:25;;;;;;;13.02;10.00;;;11.50;82.20;;;;;;5006208;28;20045;-67
2021/04/19 09:15:05;;;;;;;15.65;11.23;;;12.00;82.00;;;;;;5007696;28;20052;-69
2021/04/19 09:17:31;;;;;;;14.80;11.10;;;12.60;79.90;;;;;;5006589;28;20481;-67
2021/04/19 09:19:58;;;;;;;17.83;11.32;;;12.60;78.60;;;;;;5007025;28;20513;-68
2021/04/19 09:22:25;;;;;;;15.38;10.75;;;12.60;79.40;;;;;;5005289;28;20040;-68
2021/04/19 09:25:01;;;;;;;14.55;11.07;;;12.20;77.80;;;;;;5006718;28;20095;-68
2021/04/19 09:27:53;;;;;;;13.73;9.77;;;12.00;78.90;;;;;;5005951;28;20028;-67
2021/04/19 09:30:26;;;;;;;16.23;11.05;;;11.40;79.90;;;;;;5006351;28;20026;-67
2021/04/19 09:33:05;;;;;;;15.90;10.40;;;11.30;81.60;;;;;;5004267;28;20173;-68
2021/04/19 09:38:13;;;;;;;15.25;11.57;;;11.50;80.60;;;;;;5003318;28;20057;-66
2021/04/19 09:40:54;;;;;;;17.17;11.27;;;11.90;81.90;;;;;;5003513;28;20026;-67
2021/04/19 09:43:32;;;;;;;13.75;10.82;;;12.30;80.40;;;;;;5000917;28;20433;-67
2021/04/19 09:46:19;;;;;;;13.65;9.95;;;13.00;79.00;;;;;;4993582;28;20132;-68
2021/04/19 09:48:55;;;;;;;13.38;9.82;;;12.80;77.40;;;;;;5002899;28;20029;-67
2021/04/19 09:51:27;;;;;;;12.63;9.60;;;12.50;78.30;;;;;;5003960;28;20064;-68
2021/04/19 09:53:59;;;;;;;13.02;10.30;;;12.60;77.30;;;;;;5004622;28;20073;-70
2021/04/19 09:56:28;;;;;;;14.30;10.25;;;12.70;78.70;;;;;;5008358;28;20022;-69
2021/04/19 09:58:54;;;;;;;13.32;9.88;;;13.00;77.60;;;;;;5006789;28;20038;-67
2021/04/19 10:01:21;;;;;;;14.10;10.23;;;13.00;76.20;;;;;;5005882;28;20051;-67
2021/04/19 10:03:48;;;;;;;15.05;10.32;;;13.30;77.20;;;;;;5005875;28;20080;-67
2021/04/19 10:06:18;;;;;;;13.43;10.32;;;13.00;76.00;;;;;;5006793;28;20120;-67
2021/04/19 10:08:45;;;;;;;14.13;10.07;;;13.00;76.30;;;;;;5003592;28;20519;-67
2021/04/19 10:11:13;;;;;;;13.80;10.70;;;13.60;77.20;;;;;;5003020;28;20041;-68
2021/04/19 10:13:39;;;;;;;13.02;9.23;;;13.60;75.30;;;;;;5005509;28;20025;-67
2021/04/19 10:16:11;;;;;;;14.38;9.98;;;13.60;73.70;;;;;;5002608;28;20022;-67
2021/04/19 10:18:39;;;;;;;16.13;10.18;;;13.70;74.30;;;;;;5001097;28;20018;-67
2021/04/19 10:21:06;;;;;;;12.70;9.18;;;13.80;74.10;;;;;;4998348;28;20117;-68
2021/04/19 10:23:43;;;;;;;12.27;9.55;;;14.20;74.00;;;;;;5001544;28;20053;-68
2021/04/19 10:26:09;;;;;;;12.77;8.98;;;14.10;70.90;;;;;;5004243;28;20030;-68
2021/04/19 10:28:36;;;;;;;12.23;8.63;;;14.00;72.00;;;;;;5004626;28;20061;-68
2021/04/19 10:31:20;;;;;;;13.00;9.18;;;14.40;71.30;;;;;;4999903;28;20502;-68
2021/04/19 10:33:55;;;;;;;14.82;9.43;;;14.30;69.70;;;;;;5006763;28;20459;-68
2021/04/19 10:36:21;;;;;;;14.10;10.02;;;14.80;71.50;;;;;;5003077;28;20048;-68
2021/04/19 10:38:50;;;;;;;13.13;9.90;;;15.00;72.70;;;;;;5006277;28;20056;-67
2021/04/19 10:41:27;;;;;;;13.48;9.00;;;14.90;68.80;;;;;;5005187;28;20036;-67
2021/04/19 10:43:53;;;;;;;12.05;8.65;;;15.40;69.50;;;;;;5004514;28;20045;-68
2021/04/19 10:46:28;;;;;;;12.98;8.60;;;15.40;67.40;;;;;;5006601;28;20030;-68
2021/04/19 10:48:57;;;;;;;12.68;9.45;;;15.20;66.90;;;;;;5005800;28;20053;-70
2021/04/19 10:51:40;;;;;;;11.73;8.90;;;16.00;65.50;;;;;;5004929;28;20025;-68
2021/04/19 10:54:09;;;;;;;12.65;9.35;;;15.70;65.80;;;;;;4998449;28;20026;-68
2021/04/19 10:56:38;;;;;;;11.85;9.10;;;16.20;65.20;;;;;;5007309;28;20285;-69
2021/04/19 10:59:10;;;;;;;12.52;9.43;;;16.20;64.80;;;;;;5005488;28;20368;-67
2021/04/19 11:01:36;;;;;;;;;;;15.90;67.00;;;;;;5006322;28;20076;-69
2021/04/19 11:04:04;;;;;;;12.07;9.13;;;16.20;66.80;;;;;;5004397;28;19909;-67
2021/04/19 11:06:30;;;;;;;13.32;9.88;;;15.70;67.50;;;;;;5007420;28;20037;-68
2021/04/19 11:09:03;;;;;;;14.45;9.77;;;16.10;67.20;;;;;;5005099;28;20022;-70
2021/04/19 11:11:41;;;;;;;11.63;8.68;;;16.00;67.30;;;;;;5003717;28;20060;-68
2021/04/19 11:14:08;;;;;;;12.45;9.35;;;16.70;63.00;;;;;;5005328;28;20079;-68
2021/04/19 11:16:34;;;;;;;11.90;9.65;;;16.70;63.30;;;;;;5007903;28;20075;-70
2021/04/19 11:18:59;;;;;;;13.05;9.73;;;16.70;61.60;;;;;;5005098;28;20386;-68
2021/04/19 11:21:35;;;;;;;13.80;9.82;;;17.30;61.20;;;;;;5003022;28;20034;-71
2021/04/19 11:24:05;;;;;;;10.65;8.13;;;17.10;63.10;;;;;;4998199;28;20033;-67
2021/04/19 11:26:31;;;;;;;11.52;8.73;;;17.50;58.90;;;;;;5012771;28;20025;-68
2021/04/19 11:28:57;;;;;;;12.82;9.15;;;17.60;57.30;;;;;;5007026;28;20458;-69
2021/04/19 11:31:22;;;;;;;11.68;8.95;;;17.60;59.50;;;;;;5008410;28;20356;-67
2021/04/19 11:34:11;;;;;;;11.13;9.05;;;17.80;59.20;;;;;;5003116;28;20406;-67
2021/04/19 11:36:45;;;;;;;12.93;9.27;;;17.00;59.60;;;;;;5001794;28;20461;-69
2021/04/19 11:39:17;;;;;;;12.10;9.85;;;17.20;58.90;;;;;;5003885;28;20026;-69
2021/04/19 11:41:44;;;;;;;11.10;9.15;;;17.30;60.00;;;;;;5002763;28;20018;-71
2021/04/19 11:44:10;;;;;;;11.65;8.90;;;17.80;57.00;;;;;;5003151;28;20080;-68
2021/04/19 11:46:47;;;;;;;14.60;9.50;;;17.60;60.40;;;;;;5005174;28;20494;-68
2021/04/19 11:49:23;;;;;;;12.93;9.95;;;18.30;57.80;;;;;;5005039;28;20455;-70
2021/04/19 11:51:49;;;;;;;11.57;8.52;;;18.10;56.20;;;;;;5000141;28;20109;-69
2021/04/19 11:54:16;;;;;;;12.23;9.38;;;18.00;54.10;;;;;;5005305;28;20112;-69
2021/04/19 11:56:41;;;;;;;11.48;9.07;;;18.00;56.90;;;;;;5005130;28;20419;-69
2021/04/19 11:59:07;;;;;;;11.40;8.93;;;18.90;56.90;;;;;;4996897;28;20062;-68
2021/04/19 12:01:34;;;;;;;11.95;8.57;;;18.70;54.90;;;;;;4994240;28;20036;-68
2021/04/19 12:04:02;;;;;;;12.32;9.07;;;19.60;52.60;;;;;;4994137;28;20388;-71
2021/04/19 12:06:28;;;;;;;12.40;9.43;;;19.70;49.50;;;;;;5001834;28;20126;-68
2021/04/19 12:08:54;;;;;;;12.30;8.27;;;19.40;50.00;;;;;;5001799;28;20466;-70
2021/04/19 12:11:22;;;;;;;10.48;7.50;;;19.80;51.10;;;;;;5001003;28;20034;-70
2021/04/19 12:13:58;;;;;;;11.40;7.28;;;19.60;48.50;;;;;;4981861;28;20026;-69
2021/04/19 12:16:24;;;;;;;10.57;7.30;;;19.60;46.90;;;;;;5002320;28;20026;-71
2021/04/19 12:18:50;;;;;;;10.40;6.85;;;19.00;47.40;;;;;;5000607;28;20030;-68
2021/04/19 12:21:16;;;;;;;8.98;7.03;;;19.70;48.40;;;;;;5001943;28;20037;-71
2021/04/19 12:23:41;;;;;;;9.18;6.47;;;19.90;46.20;;;;;;5004873;28;20099;-68
2021/04/19 12:26:07;;;;;;;9.43;6.00;;;20.20;44.40;;;;;;5006013;28;20033;-71
2021/04/19 12:28:32;;;;;;;9.40;6.53;;;20.70;44.90;;;;;;5004136;28;20148;-68
2021/04/19 12:31:00;;;;;;;8.32;6.28;;;20.50;44.00;;;;;;5004054;28;20277;-68
2021/04/19 12:33:26;;;;;;;8.75;6.22;;;21.00;45.10;;;;;;5005851;28;20557;-68
2021/04/19 12:35:52;;;;;;;8.95;5.93;;;20.70;43.50;;;;;;5004220;28;20029;-70
2021/04/19 12:38:18;;;;;;;8.40;5.80;;;20.00;44.20;;;;;;5005458;28;20084;-69
2021/04/19 12:40:44;;;;;;;10.32;5.72;;;20.80;44.10;;;;;;5004838;28;20026;-67
2021/04/19 12:43:11;;;;;;;9.07;6.25;;;21.00;41.80;;;;;;5004919;28;20482;-68
2021/04/19 12:45:38;;;;;;;10.55;6.30;;;20.00;43.10;;;;;;5005149;28;20101;-69
2021/04/19 12:48:05;;;;;;;8.20;5.82;;;21.10;43.90;;;;;;5003071;28;20129;-69
2021/04/19 12:50:31;;;;;;;8.82;5.85;;;21.10;43.20;;;;;;5005826;28;20502;-70
2021/04/19 12:52:59;;;;;;;9.30;6.32;;;21.50;40.80;;;;;;5005277;28;20053;-70